Time;durP1;ratioP1;P1;durP2;ratioP2;P2;SDS_P1;SDS_P2;PMS_P1;PMS_P2;Temp;Humidity;BMP_temperature;BMP_pressure;BME280_temperature;BME280_humidity;BME280_pressure;Samples;Min_cycle;Max_cycle;Signal;HPM_P1;HPM_P2
2023/01/14 00:01:59;;;;;;;23.60;4.47;;;;;;;6.46;100.00;101329.47;4864630;29;20063;-85
2023/01/14 00:04:25;;;;;;;19.43;4.30;;;;;;;6.48;100.00;101330.09;4849009;29;20029;-85
2023/01/14 00:06:50;;;;;;;20.03;4.87;;;;;;;6.42;100.00;101330.81;4847773;29;20044;-85
2023/01/14 00:09:15;;;;;;;20.83;4.10;;;;;;;6.41;100.00;101343.41;4846643;29;20025;-85
2023/01/14 00:11:47;;;;;;;19.20;4.47;;;;;;;6.35;100.00;101341.44;4834783;29;20071;-85
2023/01/14 00:14:16;;;;;;;17.60;4.20;;;;;;;6.34;100.00;101352.38;4867152;29;20040;-85
2023/01/14 00:16:42;;;;;;;18.53;4.20;;;;;;;6.32;100.00;101354.38;4848376;29;20037;-90
2023/01/14 00:19:08;;;;;;;20.70;4.77;;;;;;;6.22;100.00;101354.56;4860371;29;20037;-91
2023/01/14 00:21:33;;;;;;;20.70;4.57;;;;;;;6.17;100.00;101351.53;4836451;29;20030;-89
2023/01/14 00:23:59;;;;;;;18.80;4.40;;;;;;;6.16;100.00;101356.09;4836551;29;20124;-90
2023/01/14 00:26:25;;;;;;;19.83;4.23;;;;;;;6.13;100.00;101356.41;4835329;29;20026;-90
2023/01/14 00:28:51;;;;;;;17.63;4.53;;;;;;;6.11;100.00;101360.31;4832825;29;20119;-89
2023/01/14 00:31:20;;;;;;;22.17;4.50;;;;;;;6.11;100.00;101366.53;4843874;29;20061;-90
2023/01/14 00:33:46;;;;;;;18.17;4.77;;;;;;;6.13;100.00;101366.34;4839688;29;20105;-90
2023/01/14 00:36:13;;;;;;;21.53;4.40;;;;;;;6.06;100.00;101350.88;4849431;29;21013;-90
2023/01/14 00:38:39;;;;;;;18.70;4.43;;;;;;;6.03;100.00;101351.22;4846142;29;20045;-90
2023/01/14 00:41:18;;;;;;;23.27;5.23;;;;;;;6.07;100.00;101349.03;4845663;29;20054;-90
2023/01/14 00:43:46;;;;;;;18.97;5.20;;;;;;;5.96;100.00;101343.97;4845537;29;20045;-89
2023/01/14 00:46:18;;;;;;;20.17;4.77;;;;;;;5.98;100.00;101360.81;4866458;29;20045;-89
2023/01/14 00:48:43;;;;;;;19.10;4.67;;;;;;;5.90;100.00;101346.31;4848903;29;20390;-90
2023/01/14 00:51:10;;;;;;;21.10;5.07;;;;;;;5.87;100.00;101354.72;4852435;29;20036;-90
2023/01/14 00:53:37;;;;;;;20.77;5.20;;;;;;;5.79;100.00;101353.88;4865533;29;20506;-90
2023/01/14 00:56:04;;;;;;;20.20;5.20;;;;;;;5.72;100.00;101345.66;4837365;29;20041;-90
2023/01/14 00:58:29;;;;;;;20.73;5.30;;;;;;;5.70;100.00;101350.38;4819914;29;20040;-90
2023/01/14 01:00:55;;;;;;;20.50;4.97;;;;;;;5.65;100.00;101358.09;4835243;29;21915;-90
2023/01/14 01:03:21;;;;;;;23.17;5.20;;;;;;;5.57;100.00;101353.53;4833431;29;20037;-89
2023/01/14 01:05:48;;;;;;;22.47;5.23;;;;;;;5.58;100.00;101366.81;4867928;29;20025;-90
2023/01/14 01:08:16;;;;;;;20.80;5.63;;;;;;;5.50;100.00;101364.09;4869411;29;20040;-90
2023/01/14 01:10:43;;;;;;;19.20;4.73;;;;;;;5.44;100.00;101345.13;4844774;29;20182;-89
2023/01/14 01:13:09;;;;;;;25.97;5.33;;;;;;;5.42;100.00;101366.78;4835715;29;20033;-89
2023/01/14 01:15:36;;;;;;;25.17;5.73;;;;;;;5.40;100.00;101372.31;4847182;29;20988;-85
2023/01/14 01:18:03;;;;;;;21.87;5.03;;;;;;;5.28;100.00;101367.44;4857779;29;20053;-85
2023/01/14 01:20:30;;;;;;;27.60;6.33;;;;;;;5.28;100.00;101367.44;4834209;29;20017;-85
2023/01/14 01:22:55;;;;;;;24.03;5.73;;;;;;;5.28;100.00;101359.38;4855542;29;20059;-85
2023/01/14 01:25:21;;;;;;;22.93;6.47;;;;;;;5.28;100.00;101354.84;4866686;29;20608;-85
2023/01/14 01:27:46;;;;;;;23.70;5.67;;;;;;;5.22;100.00;101359.03;4863805;29;20383;-85
2023/01/14 01:30:12;;;;;;;26.93;6.30;;;;;;;5.22;100.00;101360.84;4867579;29;20680;-85
2023/01/14 01:32:37;;;;;;;27.63;6.37;;;;;;;5.21;100.00;101351.13;4835258;29;20167;-84
2023/01/14 01:35:03;;;;;;;24.93;6.67;;;;;;;5.24;100.00;101359.69;4837148;29;20029;-85
2023/01/14 01:37:29;;;;;;;26.67;5.70;;;;;;;5.21;100.00;101353.81;4821403;29;20426;-85
2023/01/14 01:39:54;;;;;;;29.70;6.87;;;;;;;5.24;100.00;101361.53;4866768;29;20490;-85
2023/01/14 01:42:24;;;;;;;27.23;6.20;;;;;;;5.21;100.00;101356.50;4844889;29;22075;-85
2023/01/14 01:44:49;;;;;;;25.17;6.53;;;;;;;5.21;100.00;101354.66;4849528;29;21002;-85
2023/01/14 01:47:16;;;;;;;33.07;6.90;;;;;;;5.19;100.00;101353.94;4861080;29;20167;-85
2023/01/14 01:49:41;;;;;;;28.00;6.47;;;;;;;5.24;100.00;101359.69;4818861;29;20026;-85
2023/01/14 01:52:14;;;;;;;26.13;5.97;;;;;;;5.19;100.00;101359.31;4863199;29;20056;-85
2023/01/14 01:54:50;;;;;;;25.80;6.33;;;;;;;5.19;100.00;101350.44;4852678;29;20025;-85
2023/01/14 01:57:16;;;;;;;34.97;8.27;;;;;;;5.16;100.00;101354.28;4864070;29;20033;-85
2023/01/14 01:59:46;;;;;;;33.43;6.93;;;;;;;5.17;100.00;101355.97;4864437;29;20029;-85
2023/01/14 02:02:12;;;;;;;32.73;7.43;;;;;;;5.19;100.00;101359.31;4868241;29;20037;-85
2023/01/14 02:04:38;;;;;;;29.90;7.23;;;;;;;5.18;100.00;101351.44;4851931;29;20029;-85
2023/01/14 02:07:15;;;;;;;28.47;6.37;;;;;;;5.16;100.00;101356.97;4849626;29;20014;-85
2023/01/14 02:09:40;;;;;;;28.90;6.97;;;;;;;5.18;100.00;101346.06;4859195;29;20034;-84
2023/01/14 02:12:36;;;;;;;30.13;7.03;;;;;;;5.14;100.00;101339.34;4867922;29;20052;-85
2023/01/14 02:15:20;;;;;;;29.53;6.43;;;;;;;5.22;100.00;101336.66;4842550;29;20441;-85
2023/01/14 02:18:10;;;;;;;35.30;7.00;;;;;;;5.13;100.00;101330.44;4866043;29;20037;-84
2023/01/14 02:20:38;;;;;;;32.37;7.37;;;;;;;5.17;100.00;101323.75;4847873;29;20038;-85
2023/01/14 02:23:42;;;;;;;29.53;6.50;;;;;;;5.14;100.00;101313.34;4847296;29;20029;-85
2023/01/14 02:26:24;;;;;;;29.97;6.30;;;;;;;5.16;100.00;101295.19;4812521;29;20038;-85
2023/01/14 02:29:03;;;;;;;28.07;7.00;;;;;;;5.13;100.00;101292.00;4866305;29;20047;-85
2023/01/14 02:31:34;;;;;;;30.00;7.17;;;;;;;5.05;100.00;101282.09;4836652;29;20025;-85
2023/01/14 02:34:08;;;;;;;34.50;7.63;;;;;;;4.96;100.00;101280.38;4849166;29;20069;-85
2023/01/14 02:36:41;;;;;;;34.27;7.03;;;;;;;4.98;100.00;101268.47;4847037;29;20100;-85
2023/01/14 02:39:13;;;;;;;30.83;6.80;;;;;;;4.99;100.00;101269.31;4842525;29;20811;-84
2023/01/14 02:44:37;;;;;;;33.57;8.00;;;;;;;5.02;100.00;101266.31;4870423;29;20517;-89
2023/01/14 02:47:10;;;;;;;31.97;8.00;;;;;;;4.99;100.00;101253.19;4854105;29;20033;-90
2023/01/14 02:49:41;;;;;;;31.75;7.88;;;;;;;5.00;100.00;101262.94;4851426;29;20028;-90
2023/01/14 02:52:07;;;;;;;35.30;9.53;;;;;;;4.95;100.00;101252.69;4866045;29;20041;-89
2023/01/14 02:54:33;;;;;;;34.27;9.73;;;;;;;4.93;100.00;101262.75;4850535;29;20034;-89
2023/01/14 02:57:05;;;;;;;33.90;8.83;;;;;;;4.94;100.00;101260.88;4861845;29;20549;-90
2023/01/14 02:59:59;;;;;;;34.47;9.43;;;;;;;4.92;100.00;101255.69;4859106;29;20116;-90
2023/01/14 03:02:42;;;;;;;32.93;8.03;;;;;;;4.85;100.00;101257.34;4850090;29;20452;-90
2023/01/14 03:05:23;;;;;;;29.63;7.87;;;;;;;4.83;100.00;101262.91;4840724;29;20069;-85
2023/01/14 03:08:41;;;;;;;36.00;9.80;;;;;;;4.80;100.00;101249.81;4844710;29;20049;-84
2023/01/14 03:11:09;;;;;;;36.70;10.43;;;;;;;4.82;100.00;101245.09;4807251;29;20130;-85
2023/01/14 03:14:13;;;;;;;31.27;8.83;;;;;;;4.78;100.00;101246.44;4834181;29;21067;-85
2023/01/14 03:16:44;;;;;;;34.70;8.57;;;;;;;4.85;100.00;101238.56;4834004;29;20635;-84
2023/01/14 03:19:17;;;;;;;30.20;8.87;;;;;;;4.82;100.00;101222.78;4845038;29;20437;-85
2023/01/14 03:21:49;;;;;;;34.10;9.93;;;;;;;4.81;100.00;101221.09;4847250;29;20025;-84
2023/01/14 03:24:44;;;;;;;40.83;11.00;;;;;;;4.81;100.00;101216.56;4849991;29;20052;-85
2023/01/14 03:27:22;;;;;;;35.58;10.27;;;;;;;4.83;100.00;101221.78;4839858;29;20041;-84
2023/01/14 03:29:52;;;;;;;33.77;8.83;;;;;;;4.84;100.00;101215.41;4847222;29;20034;-85
2023/01/14 03:32:23;;;;;;;30.37;7.20;;;;;;;4.92;100.00;101211.91;4849774;29;20032;-85
2023/01/14 03:34:58;;;;;;;37.87;9.03;;;;;;;4.89;100.00;101210.38;4856076;29;20065;-89
2023/01/14 03:37:25;;;;;;;36.30;8.23;;;;;;;4.97;100.00;101206.88;4855994;29;20061;-89
2023/01/14 03:39:54;;;;;;;32.03;8.67;;;;;;;4.95;100.00;101207.03;4851819;29;21778;-90
2023/01/14 03:42:23;;;;;;;32.17;8.43;;;;;;;4.97;100.00;101207.69;4861170;29;20161;-90
2023/01/14 03:44:57;;;;;;;32.27;9.20;;;;;;;5.06;100.00;101201.34;4840098;29;20078;-89
2023/01/14 03:47:25;;;;;;;30.92;7.65;;;;;;;5.03;100.00;101195.44;4859172;29;20061;-89
2023/01/14 03:49:51;;;;;;;32.00;8.50;;;;;;;5.05;100.00;101190.75;4845224;29;20526;-89
2023/01/14 03:52:32;;;;;;;37.13;8.13;;;;;;;5.10;100.00;101188.44;4866766;29;20029;-90
2023/01/14 03:55:17;;;;;;;33.73;6.97;;;;;;;5.19;100.00;101192.78;4842814;29;21060;-89
2023/01/14 03:57:51;;;;;;;29.90;7.40;;;;;;;5.17;100.00;101186.75;4841513;29;20039;-90
2023/01/14 04:00:26;;;;;;;35.15;8.98;;;;;;;5.21;100.00;101185.41;4867933;29;20120;-89
2023/01/14 04:02:54;;;;;;;35.13;9.13;;;;;;;5.17;100.00;101178.69;4848819;29;20127;-89
2023/01/14 04:05:19;;;;;;;29.00;8.17;;;;;;;5.18;100.00;101175.00;4852330;29;20051;-90
2023/01/14 04:07:50;;;;;;;34.03;8.73;;;;;;;5.19;100.00;101173.13;4816589;29;20030;-90
2023/01/14 04:10:16;;;;;;;32.13;8.23;;;;;;;5.18;100.00;101158.88;4845519;29;20621;-89
2023/01/14 04:15:20;;;;;;;31.07;8.10;;;;;;;5.21;100.00;101158.53;4838107;29;20090;-89
2023/01/14 04:15:26;;;;;;;31.03;8.13;;;;;;;5.20;100.00;101150.66;4833563;29;20038;-89
2023/01/14 04:17:52;;;;;;;30.73;7.17;;;;;;;5.25;100.00;101137.56;4834538;29;21827;-84
2023/01/14 04:20:17;;;;;;;33.13;8.27;;;;;;;5.23;100.00;101140.38;4835962;29;20036;-85
2023/01/14 04:22:43;;;;;;;30.20;7.60;;;;;;;5.28;100.00;101129.16;4863029;29;20150;-84
2023/01/14 04:25:08;;;;;;;28.43;6.90;;;;;;;5.32;100.00;101122.41;4844351;29;20124;-85
2023/01/14 04:27:34;;;;;;;32.07;6.17;;;;;;;5.30;100.00;101126.28;4870520;29;20034;-85
2023/01/14 04:29:59;;;;;;;27.13;6.00;;;;;;;5.37;100.00;101135.31;4846974;29;20037;-85
2023/01/14 04:32:24;;;;;;;28.50;6.20;;;;;;;5.36;100.00;101126.44;4868583;29;20137;-85
2023/01/14 04:34:50;;;;;;;24.97;5.47;;;;;;;5.43;100.00;101118.53;4812019;29;20034;-85
2023/01/14 04:37:15;;;;;;;30.57;6.10;;;;;;;5.41;100.00;101113.34;4852660;29;20073;-84
2023/01/14 04:39:40;;;;;;;29.27;7.17;;;;;;;5.42;100.00;101111.47;4846310;29;20060;-85
2023/01/14 04:42:26;;;;;;;28.40;6.30;;;;;;;5.45;100.00;101107.63;4863441;29;20120;-85
2023/01/14 04:44:52;;;;;;;28.17;5.90;;;;;;;5.40;100.00;101092.84;4848099;29;20037;-85
2023/01/14 04:47:17;;;;;;;27.87;5.50;;;;;;;5.46;100.00;101088.63;4814080;29;20399;-85
2023/01/14 04:49:42;;;;;;;27.97;6.13;;;;;;;5.40;100.00;101098.22;4843658;29;20045;-85
2023/01/14 04:52:08;;;;;;;27.50;6.50;;;;;;;5.46;100.00;101093.16;4834826;29;20044;-84
2023/01/14 04:54:33;;;;;;;29.30;6.47;;;;;;;5.41;100.00;101099.03;4832400;29;20611;-85
2023/01/14 04:56:58;;;;;;;25.37;4.97;;;;;;;5.38;100.00;101100.22;4855507;29;20124;-85
2023/01/14 04:59:24;;;;;;;27.17;5.60;;;;;;;5.38;100.00;101080.59;4838442;29;20036;-84
2023/01/14 05:01:49;;;;;;;27.27;5.67;;;;;;;5.37;100.00;101082.44;4837665;29;20076;-85
2023/01/14 05:04:16;;;;;;;24.60;5.53;;;;;;;5.34;100.00;101081.94;4840020;29;20037;-84
2023/01/14 05:06:41;;;;;;;27.87;6.53;;;;;;;5.38;100.00;101076.03;4870890;29;20025;-85
2023/01/14 05:09:07;;;;;;;24.77;5.50;;;;;;;5.31;100.00;101075.06;4838677;29;20440;-85
2023/01/14 05:11:32;;;;;;;29.37;5.60;;;;;;;5.28;100.00;101069.22;4850270;29;20503;-85
2023/01/14 05:13:57;;;;;;;22.47;5.40;;;;;;;5.31;100.00;101052.72;4849391;29;20036;-85
2023/01/14 05:16:23;;;;;;;23.90;5.80;;;;;;;5.34;100.00;101060.44;4847755;29;20029;-85
2023/01/14 05:18:50;;;;;;;27.40;6.27;;;;;;;5.39;100.00;101055.41;4870543;29;20037;-85
2023/01/14 05:21:17;;;;;;;25.20;5.73;;;;;;;5.40;100.00;101054.41;4848159;29;20085;-85
2023/01/14 05:23:43;;;;;;;26.27;5.80;;;;;;;5.37;100.00;101038.59;4821077;29;20039;-84
2023/01/14 05:26:08;;;;;;;23.93;4.97;;;;;;;5.39;100.00;101036.59;4840449;29;20068;-84
2023/01/14 05:28:34;;;;;;;23.13;6.00;;;;;;;5.34;100.00;101033.56;4822932;29;20042;-85
2023/01/14 05:30:59;;;;;;;29.27;6.23;;;;;;;5.40;100.00;101030.22;4843019;29;20025;-84
2023/01/14 05:33:24;;;;;;;23.07;5.57;;;;;;;5.39;100.00;101033.91;4845878;29;20136;-85
2023/01/14 05:35:55;;;;;;;26.50;5.60;;;;;;;5.42;100.00;101012.03;4810790;29;20029;-85
2023/01/14 05:38:20;;;;;;;21.23;4.43;;;;;;;5.45;100.00;101003.63;4864014;29;20537;-85
2023/01/14 05:40:45;;;;;;;22.67;4.87;;;;;;;5.46;100.00;100993.75;4854124;29;20028;-85
2023/01/14 05:45:55;;;;;;;24.88;5.68;;;;;;;5.49;100.00;100983.47;4841125;29;20080;-85
2023/01/14 05:48:25;;;;;;;22.53;4.93;;;;;;;5.48;100.00;100979.13;4836468;29;20033;-85
2023/01/14 05:50:52;;;;;;;22.87;4.87;;;;;;;5.56;100.00;100965.63;4865921;29;20406;-85
2023/01/14 05:53:18;;;;;;;23.23;5.00;;;;;;;5.52;100.00;100945.50;4848182;29;20049;-85
2023/01/14 05:55:44;;;;;;;26.00;5.77;;;;;;;5.58;100.00;100955.53;4851892;29;20040;-85
2023/01/14 05:58:11;;;;;;;28.20;6.07;;;;;;;5.63;100.00;100935.34;4848156;29;20048;-84
2023/01/14 06:06:26;;;;;;;27.53;5.30;;;;;;;5.67;100.00;100925.91;4838968;29;20052;-85
2023/01/14 06:08:55;;;;;;;21.17;4.70;;;;;;;5.67;100.00;100916.00;4848598;29;20112;-90
2023/01/14 06:11:21;;;;;;;24.70;5.13;;;;;;;5.68;100.00;100914.16;4848161;29;20036;-90
2023/01/14 06:13:48;;;;;;;21.23;5.07;;;;;;;5.65;100.00;100912.66;4837084;29;20033;-90
2023/01/14 06:16:15;;;;;;;23.67;5.07;;;;;;;5.68;100.00;100914.16;4868257;29;20498;-89
2023/01/14 06:18:43;;;;;;;24.63;4.90;;;;;;;5.71;100.00;100911.09;4831306;29;20036;-90
2023/01/14 06:21:14;;;;;;;26.00;5.47;;;;;;;5.71;100.00;100905.72;4822712;29;20033;-90
2023/01/14 06:23:40;;;;;;;26.60;5.70;;;;;;;5.74;100.00;100900.00;4869688;29;20052;-89
2023/01/14 06:26:11;;;;;;;28.20;5.77;;;;;;;5.82;100.00;100891.03;4847562;29;20105;-90
2023/01/14 06:28:36;;;;;;;24.60;4.70;;;;;;;5.79;100.00;100894.09;4863387;29;20033;-91
2023/01/14 06:31:08;;;;;;;22.57;5.03;;;;;;;5.86;100.00;100890.50;4819388;29;20609;-89
2023/01/14 06:33:33;;;;;;;24.13;4.57;;;;;;;5.84;100.00;100878.25;4850087;29;20032;-90
2023/01/14 06:36:00;;;;;;;25.73;5.40;;;;;;;5.87;100.00;100873.34;4864473;29;20029;-89
2023/01/14 06:38:25;;;;;;;25.00;4.93;;;;;;;5.83;100.00;100861.28;4835033;29;20062;-89
2023/01/14 06:40:50;;;;;;;25.53;4.97;;;;;;;5.85;100.00;100858.44;4832721;29;20468;-88
2023/01/14 06:43:16;;;;;;;22.07;4.87;;;;;;;5.88;100.00;100853.50;4851511;29;20033;-89
2023/01/14 06:45:41;;;;;;;24.17;5.50;;;;;;;5.85;100.00;100848.50;4841675;29;20045;-90
2023/01/14 06:48:06;;;;;;;22.70;4.90;;;;;;;5.87;100.00;100840.25;4836370;29;20036;-89
2023/01/14 06:50:32;;;;;;;26.00;5.13;;;;;;;5.84;100.00;100827.16;4831131;29;20075;-89
2023/01/14 06:53:02;;;;;;;22.63;5.07;;;;;;;5.81;100.00;100825.69;4842265;29;21974;-90
2023/01/14 06:55:27;;;;;;;24.43;5.07;;;;;;;5.80;100.00;100815.09;4849890;29;20055;-89
2023/01/14 06:57:53;;;;;;;25.30;5.30;;;;;;;5.76;100.00;100795.78;4836736;29;20033;-89
2023/01/14 07:00:18;;;;;;;24.63;4.80;;;;;;;5.72;100.00;100800.69;4850300;29;20116;-90
2023/01/14 07:02:44;;;;;;;19.93;4.53;;;;;;;5.75;100.00;100799.50;4867461;29;20030;-90
2023/01/14 07:05:09;;;;;;;22.40;5.37;;;;;;;5.70;100.00;100797.38;4830931;29;20384;-90
2023/01/14 07:07:34;;;;;;;20.00;4.97;;;;;;;5.76;100.00;100793.09;4840000;29;20064;-90
2023/01/14 07:10:00;;;;;;;23.03;4.90;;;;;;;5.70;100.00;100780.41;4849558;29;20040;-90
2023/01/14 07:12:25;;;;;;;23.57;4.97;;;;;;;5.68;100.00;100777.88;4831705;29;20033;-90
2023/01/14 07:14:50;;;;;;;26.70;5.40;;;;;;;5.69;100.00;100771.50;4864127;29;20086;-89
2023/01/14 07:17:16;;;;;;;27.67;5.40;;;;;;;5.68;100.00;100760.94;4814401;29;20061;-90
2023/01/14 07:19:41;;;;;;;22.67;4.93;;;;;;;5.64;100.00;100752.38;4849551;29;20316;-85
2023/01/14 07:22:07;;;;;;;22.33;5.07;;;;;;;5.59;100.00;100741.34;4849708;29;20486;-84
2023/01/14 07:24:32;;;;;;;25.13;5.27;;;;;;;5.65;100.00;100734.41;4834612;29;20036;-85
2023/01/14 07:26:57;;;;;;;23.43;5.23;;;;;;;5.53;100.00;100724.09;4848378;29;20026;-84
2023/01/14 07:29:23;;;;;;;24.90;5.17;;;;;;;5.55;100.00;100723.94;4862573;29;20561;-85
2023/01/14 07:31:48;;;;;;;21.30;4.93;;;;;;;5.60;100.00;100720.69;4820883;29;20045;-85
2023/01/14 07:34:14;;;;;;;24.47;5.63;;;;;;;5.55;100.00;100710.47;4844457;29;20061;-84
2023/01/14 07:36:39;;;;;;;22.37;5.27;;;;;;;5.56;100.00;100715.69;4846465;29;20037;-84
2023/01/14 07:39:05;;;;;;;21.17;4.60;;;;;;;5.57;100.00;100698.50;4862100;29;20060;-91
2023/01/14 07:41:30;;;;;;;20.43;4.70;;;;;;;5.65;100.00;100688.72;4837292;29;20048;-90
2023/01/14 07:43:56;;;;;;;22.27;5.23;;;;;;;5.57;100.00;100693.13;4843243;29;20040;-90
2023/01/14 07:46:21;;;;;;;19.23;4.37;;;;;;;5.57;100.00;100687.75;4848741;29;20553;-92
2023/01/14 07:48:46;;;;;;;21.07;4.97;;;;;;;5.64;100.00;100679.78;4848166;29;20033;-91
2023/01/14 07:51:20;;;;;;;21.97;5.53;;;;;;;5.58;100.00;100665.25;4847507;29;20119;-89
2023/01/14 07:53:46;;;;;;;19.10;5.03;;;;;;;5.65;100.00;100656.47;4848164;29;20113;-91
2023/01/14 07:56:12;;;;;;;20.80;5.50;;;;;;;5.59;100.00;100649.97;4817407;29;20040;-91
2023/01/14 07:58:37;;;;;;;18.80;5.37;;;;;;;5.61;100.00;100641.72;4828425;29;20113;-93
2023/01/14 08:01:07;;;;;;;17.90;5.30;;;;;;;5.61;100.00;100631.78;4843647;29;20045;-91
2023/01/14 08:03:33;;;;;;;17.60;5.17;;;;;;;5.62;100.00;100616.53;4848757;29;20514;-92
2023/01/14 08:06:03;;;;;;;19.00;5.20;;;;;;;5.66;100.00;100628.56;4832107;29;20036;-94
2023/01/14 08:08:29;;;;;;;17.73;4.90;;;;;;;5.71;100.00;100604.63;4849197;29;20029;-91
2023/01/14 08:10:54;;;;;;;20.23;5.40;;;;;;;5.68;100.00;100578.94;4819641;29;20048;-92
2023/01/14 08:13:20;;;;;;;16.33;4.50;;;;;;;5.73;100.00;100591.84;4850182;29;20071;-91
2023/01/14 08:15:52;;;;;;;17.07;4.83;;;;;;;5.76;100.00;100575.34;4848268;29;20080;-91
2023/01/14 08:18:18;;;;;;;18.33;5.10;;;;;;;5.79;100.00;100566.91;4824869;29;20025;-91
2023/01/14 08:20:43;;;;;;;17.23;4.90;;;;;;;5.81;100.00;100551.44;4840485;29;20032;-92
2023/01/14 08:23:09;;;;;;;14.77;4.53;;;;;;;5.86;100.00;100556.22;4845953;29;20025;-92
2023/01/14 08:25:34;;;;;;;14.37;4.40;;;;;;;5.86;100.00;100551.69;4839838;29;20037;-86
2023/01/14 08:27:59;;;;;;;14.83;4.33;;;;;;;5.92;100.00;100553.63;4860973;29;20026;-86
2023/01/14 08:30:25;;;;;;;13.67;4.53;;;;;;;5.97;100.00;100538.78;4845109;29;20112;-86
2023/01/14 08:32:50;;;;;;;13.73;4.13;;;;;;;5.98;100.00;100535.09;4854232;29;20040;-86
2023/01/14 08:35:16;;;;;;;14.80;4.50;;;;;;;5.99;100.00;100505.31;4850958;29;20502;-86
2023/01/14 08:37:41;;;;;;;11.30;3.77;;;;;;;6.13;100.00;100517.06;4868975;29;20402;-86
2023/01/14 08:40:08;;;;;;;12.00;4.13;;;;;;;6.12;100.00;100509.19;4849071;29;20100;-87
2023/01/14 08:42:33;;;;;;;12.73;3.80;;;;;;;6.09;100.00;100483.50;4823016;29;20509;-86
2023/01/14 08:44:58;;;;;;;14.60;3.80;;;;;;;6.17;100.00;100487.94;4845912;29;20036;-86
2023/01/14 08:47:24;;;;;;;10.20;3.40;;;;;;;6.18;100.00;100487.72;4844303;29;20032;-86
2023/01/14 08:49:49;;;;;;;12.63;3.63;;;;;;;6.23;100.00;100458.41;4852640;29;20393;-86
2023/01/14 08:52:15;;;;;;;9.93;3.23;;;;;;;6.25;100.00;100467.09;4868746;29;20033;-87
2023/01/14 08:54:40;;;;;;;10.83;3.27;;;;;;;6.30;100.00;100450.38;4862879;29;20037;-86
2023/01/14 08:57:05;;;;;;;8.27;2.93;;;;;;;6.33;100.00;100450.00;4823611;29;20029;-87
2023/01/14 08:59:31;;;;;;;9.43;3.03;;;;;;;6.35;100.00;100430.97;4847236;29;20616;-87
2023/01/14 09:01:56;;;;;;;10.83;3.03;;;;;;;6.44;100.00;100415.53;4852517;29;20017;-86
2023/01/14 09:04:24;;;;;;;12.77;3.13;;;;;;;6.48;100.00;100408.72;4848891;29;20680;-86
2023/01/14 09:17:46;;;;;;;7.90;3.13;;;;;;;6.56;100.00;100376.28;4856893;29;20074;-87
2023/01/14 09:20:17;;;;;;;8.93;2.70;;;;;;;6.61;100.00;100389.97;4843409;29;20037;-87
2023/01/14 09:22:44;;;;;;;7.63;2.60;;;;;;;6.64;100.00;100384.19;4841294;29;20037;-87
2023/01/14 09:25:10;;;;;;;10.17;2.80;;;;;;;6.65;100.00;100374.25;4839108;29;20118;-86
2023/01/14 09:27:36;;;;;;;8.77;2.47;;;;;;;6.73;100.00;100374.09;4840543;29;20573;-87
2023/01/14 09:30:03;;;;;;;11.97;3.07;;;;;;;6.70;100.00;100361.84;4841367;29;20045;-87
2023/01/14 09:32:37;;;;;;;8.53;2.83;;;;;;;6.71;100.00;100357.31;4840376;29;20045;-87
2023/01/14 09:35:02;;;;;;;10.10;2.87;;;;;;;6.73;100.00;100350.69;4840481;29;20395;-86
2023/01/14 09:37:28;;;;;;;9.33;2.67;;;;;;;6.75;100.00;100339.72;4840381;29;20286;-87
2023/01/14 09:39:53;;;;;;;9.43;2.70;;;;;;;6.74;100.00;100327.28;4840784;29;20049;-92
2023/01/14 09:42:47;;;;;;;9.30;2.80;;;;;;;6.80;100.00;100315.75;4843038;29;20037;-92
2023/01/14 09:45:16;;;;;;;9.33;2.50;;;;;;;6.87;100.00;100316.59;4851535;29;20424;-90
2023/01/14 09:47:43;;;;;;;9.30;3.10;;;;;;;6.82;100.00;100319.03;4839221;29;20030;-92
2023/01/14 09:50:20;;;;;;;11.63;3.30;;;;;;;6.87;100.00;100291.53;4840174;29;20361;-93
2023/01/14 09:53:04;;;;;;;9.57;3.20;;;;;;;6.91;100.00;100285.53;4839126;29;20042;-91
2023/01/14 09:55:44;;;;;;;8.80;3.08;;;;;;;6.93;100.00;100294.25;4841843;29;20033;-90
2023/01/14 09:58:18;;;;;;;9.97;2.70;;;;;;;6.96;100.00;100282.22;4859647;29;20060;-92
2023/01/14 10:01:13;;;;;;;10.63;2.77;;;;;;;6.93;100.00;100286.19;4844061;29;20037;-91
2023/01/14 10:03:50;;;;;;;9.60;2.80;;;;;;;6.95;100.00;100274.34;4849082;29;20037;-91
2023/01/14 10:06:17;;;;;;;9.63;2.97;;;;;;;6.98;100.00;100265.88;4856406;29;20375;-92
2023/01/14 10:08:54;;;;;;;9.03;2.50;;;;;;;7.02;100.00;100264.44;4841676;29;20049;-88
2023/01/14 10:11:22;;;;;;;11.03;2.70;;;;;;;7.04;100.00;100248.91;4840987;29;20034;-95
2023/01/14 10:14:09;;;;;;;10.80;2.97;;;;;;;7.09;100.00;100247.25;4842685;29;20029;-92
2023/01/14 10:16:40;;;;;;;7.87;2.47;;;;;;;7.09;100.00;100243.72;4840318;29;20114;-94
2023/01/14 10:19:19;;;;;;;9.83;3.03;;;;;;;7.09;100.00;100214.09;4857450;29;20088;-94
2023/01/14 10:22:03;;;;;;;10.97;3.10;;;;;;;7.19;100.00;100203.75;4843109;29;20079;-91
2023/01/14 10:24:29;;;;;;;12.13;3.30;;;;;;;7.27;100.00;100197.34;4839229;29;20037;-92
2023/01/14 10:26:55;;;;;;;11.17;3.07;;;;;;;7.24;100.00;100192.34;4841922;29;20021;-93
2023/01/14 10:29:24;;;;;;;9.23;2.63;;;;;;;7.28;100.00;100192.78;4839304;29;20505;-92
2023/01/14 10:31:59;;;;;;;8.17;2.90;;;;;;;7.35;100.00;100166.66;4841444;29;20032;-93
2023/01/14 10:34:39;;;;;;;10.13;3.03;;;;;;;7.37;100.00;100172.66;4843126;29;20056;-93
2023/01/14 10:37:09;;;;;;;7.83;2.80;;;;;;;7.46;100.00;100165.22;4858313;29;20545;-92
2023/01/14 10:39:36;;;;;;;7.50;2.70;;;;;;;7.47;100.00;100170.41;4842614;29;20046;-94
2023/01/14 10:42:03;;;;;;;8.20;3.20;;;;;;;7.47;100.00;100126.44;4842944;29;20029;-90
2023/01/14 10:44:33;;;;;;;11.53;2.83;;;;;;;7.54;100.00;100120.00;4840529;29;20031;-92
2023/01/14 10:47:06;;;;;;;10.77;2.83;;;;;;;7.57;100.00;100124.94;4857129;29;20021;-90
2023/01/14 10:49:43;;;;;;;11.43;3.40;;;;;;;7.54;100.00;100125.38;4856917;29;20502;-95
2023/01/14 10:52:34;;;;;;;6.57;2.60;;;;;;;7.61;100.00;100109.19;4841697;29;20062;-93
2023/01/14 10:55:17;;;;;;;7.47;2.50;;;;;;;7.62;100.00;100088.47;4859623;29;20091;-92
2023/01/14 10:57:45;;;;;;;8.17;2.73;;;;;;;7.62;100.00;100113.56;4844263;29;20032;-93
2023/01/14 11:00:34;;;;;;;10.33;3.17;;;;;;;7.62;100.00;100073.13;4839691;29;20045;-88
2023/01/14 11:03:01;;;;;;;10.00;3.00;;;;;;;7.62;100.00;100099.25;4855598;29;20052;-88
2023/01/14 11:05:41;;;;;;;5.70;2.30;;;;;;;7.64;100.00;100064.81;4836890;29;20018;-87
2023/01/14 11:08:21;;;;;;;4.60;2.13;;;;;;;7.71;100.00;100044.03;4857725;29;20033;-87
2023/01/14 11:10:59;;;;;;;8.57;2.93;;;;;;;7.71;100.00;100044.88;4840218;29;20040;-87
2023/01/14 11:13:27;;;;;;;7.53;2.47;;;;;;;7.84;100.00;100070.97;4855467;29;20052;-87
2023/01/14 11:15:52;;;;;;;8.70;3.10;;;;;;;7.83;100.00;100036.94;4850518;29;20060;-87
2023/01/14 11:18:18;;;;;;;7.53;2.50;;;;;;;7.91;100.00;100027.78;4819803;29;20064;-86
2023/01/14 11:20:52;;;;;;;5.40;2.57;;;;;;;7.88;100.00;100033.63;4838514;29;20046;-86
2023/01/14 11:23:26;;;;;;;;;;;;;;;8.09;100.00;100035.16;4853899;29;20072;-87
2023/01/14 11:25:51;;;;;;;7.67;2.90;;;;;;;7.95;100.00;100037.09;4849202;29;19916;-87
2023/01/14 11:28:17;;;;;;;7.53;3.10;;;;;;;8.03;100.00;100006.38;4836723;29;20032;-86
2023/01/14 11:30:48;;;;;;;8.97;2.90;;;;;;;8.09;100.00;100024.38;4855982;29;20383;-88
2023/01/14 11:33:23;;;;;;;6.43;2.63;;;;;;;8.09;100.00;99997.41;4840222;29;20099;-86
2023/01/14 11:35:52;;;;;;;6.20;2.53;;;;;;;8.07;100.00;99956.31;4855743;29;20078;-87
2023/01/14 11:38:21;;;;;;;6.03;2.50;;;;;;;8.12;100.00;99975.41;4839818;29;20379;-88
2023/01/14 11:43:51;;;;;;;6.00;2.40;;;;;;;8.14;100.00;99967.09;4855697;29;20043;-88
2023/01/14 11:46:17;;;;;;;5.30;2.43;;;;;;;8.20;100.00;99971.59;4855082;29;20028;-87
2023/01/14 11:48:43;;;;;;;4.67;2.67;;;;;;;8.21;100.00;99930.88;4841011;29;20096;-86
2023/01/14 11:51:27;;;;;;;5.27;2.73;;;;;;;8.26;100.00;99976.94;4824417;29;20034;-91
2023/01/14 11:53:54;;;;;;;7.53;2.83;;;;;;;8.25;100.00;99959.13;4853234;29;20021;-90
2023/01/14 11:56:31;;;;;;;4.67;2.60;;;;;;;8.27;100.00;99970.50;4855737;29;20105;-91